1978 GRETA (1978257N11298)


On this page: IBTrACS data - Map and Plots - Positions - Intensities - Original source data

Summary

Start Sep 13
End Sep 20
Basins EP
NA
LMI 115 kt
Sources hurdat_atl
atcf
In WMO? Yes
Related storms 1978263N16267
Previous storm 1978 HOPE (NA)
Previous in basin 1978 HOPE (NA)
Concurrent storms 1978 FLOSSIE (NA)
1978 TD0909 (WP)
1978 JUDY (WP)
1978 IRMA (WP)
1978 HOPE (NA)
1978 GRETA (NA)
1978 TD0919 (WP)
1978 MISSING (NA)
1978 KIT (WP)
1978 OLIVIA (EP)
Next in basin 1978 MISSING (NA)
Next storm 1978 TD0919 (WP)

top of page IBTrACS Data: File Access

top of page HURSAT Data: File Access

Image of storm

top of page Plots:

Map of storm track will not appear if FTP is down
Time series of cyclone Maximum Sustained Wind will not appear if FTP is down
Time series of cyclone Minimum Central Pressure will not appear if FTP is down

top of page Track Data:Position

hurdat_atl atcf
Date Lat Lon Lat Lon
1978-09-13 18:00:00 11.0 -62.5 11.0 -62.5
1978-09-14 00:00:00 11.5 -64.5 11.5 -64.5
1978-09-14 06:00:00 12.0 -66.0 12.0 -66.0
1978-09-14 12:00:00 12.5 -67.5 12.5 -67.5
1978-09-14 18:00:00 13.0 -69.0 13.0 -69.0
1978-09-15 00:00:00 13.3 -70.4 13.3 -70.4
1978-09-15 06:00:00 13.4 -71.7 13.4 -71.7
1978-09-15 12:00:00 13.5 -73.1 13.5 -73.1
1978-09-15 18:00:00 13.7 -74.2 13.7 -74.2
1978-09-16 00:00:00 13.8 -75.3 13.8 -75.3
1978-09-16 06:00:00 13.8 -76.7 13.8 -76.7
1978-09-16 12:00:00 14.0 -77.7 14.0 -77.7
1978-09-16 18:00:00 14.3 -78.7 14.3 -78.7
1978-09-17 00:00:00 14.6 -79.6 14.6 -79.6
1978-09-17 06:00:00 14.9 -80.5 14.9 -80.5
1978-09-17 12:00:00 15.2 -81.6 15.2 -81.6
1978-09-17 18:00:00 15.5 -82.6 15.5 -82.6
1978-09-18 00:00:00 15.6 -83.4 15.6 -83.4
1978-09-18 06:00:00 15.8 -84.3 15.8 -84.3
1978-09-18 12:00:00 16.4 -85.6 16.4 -85.6
1978-09-18 18:00:00 16.6 -86.9 16.6 -86.9
1978-09-19 00:00:00 17.0 -88.2 17.0 -88.2
1978-09-19 06:00:00 17.0 -89.4 17.0 -89.4
1978-09-19 12:00:00 16.7 -90.7 16.7 -90.7
1978-09-19 18:00:00 16.0 -92.0 16.0 -92.0
hurdat_atl atcf
1978-09-20 00:00:00 15.7 -93.0 15.7 -93.0

top of pageTrack Data:Intensity

hurdat_atl atcf
Date Wind Pres Wind Pres
1978-09-13 18:00:00 25. 25.
1978-09-14 00:00:00 25. 25.
1978-09-14 06:00:00 30. 30.
1978-09-14 12:00:00 35. 35.
1978-09-14 18:00:00 35. 1004. 35. 1004.
1978-09-15 00:00:00 40. 40.
1978-09-15 06:00:00 40. 40.
1978-09-15 12:00:00 45. 45.
1978-09-15 18:00:00 50. 1000. 50. 1000.
1978-09-16 00:00:00 55. 995. 55. 995.
1978-09-16 06:00:00 60. 60.
1978-09-16 12:00:00 70. 989. 70. 989.
1978-09-16 18:00:00 75. 75.
1978-09-17 00:00:00 80. 982. 80. 982.
1978-09-17 06:00:00 85. 85.
1978-09-17 12:00:00 90. 974. 90. 974.
1978-09-17 18:00:00 95. 968. 95. 968.
1978-09-18 00:00:00 110. 952. 110. 952.
1978-09-18 06:00:00 115. 947. 115. 947.
1978-09-18 12:00:00 105. 957. 105. 957.
1978-09-18 18:00:00 100. 964. 100. 964.
1978-09-19 00:00:00 95. 964. 95. 964.
1978-09-19 06:00:00 50. 50.
1978-09-19 12:00:00 30. 30.
1978-09-19 18:00:00 30. 30.
hurdat_atl atcf
1978-09-20 00:00:00 30. 30.

top of page Links to source data

Source Source file Format
hurdat_atl tracks1851to2011.txt:1060:GRETA HURDAT
atcf bal161978.dat ATCF